Taxila Weather



Taxila's Current Weather

Temprature 7.22o clear sky

clear sky

Rain: 0 %

Min Temprature7.22o
Max Temprature7.22o
Humidity89
Wind Speed1.34 m/h
Sun Rise07:12:32
Sun Set17:25:21
Current Time: 18-Jan-2021 05:34:37
Lat/Lon: 33.7476, 72.8075




Taxila's Geo Location



Taxila's Weather Forecast

Time Overall Temp Min Temp Max Temp Humidity Wind Speed Rain
18-Jan-2021 (Mon)
08:00:00 clear sky 7.940 7.940 8.690 73 0.87 m/h 0 %
11:00:00 clear sky 13.920 13.920 15.770 46 1.54 m/h 0 %
14:00:00 clear sky 17.690 17.690 18.410 31 1.68 m/h 0 %
17:00:00 clear sky 15.010 15.010 15.070 36 1.88 m/h 0 %
20:00:00 clear sky 11.130 11.130 11.130 45 1.41 m/h 0 %
23:00:00 clear sky 9.700 9.700 9.700 49 1.43 m/h 0 %
19-Jan-2021 (Tue)
02:00:00 clear sky 8.780 8.780 8.780 52 1.61 m/h 0 %
05:00:00 clear sky 7.830 7.830 7.830 54 1.36 m/h 0 %
08:00:00 clear sky 8.460 8.460 8.460 51 1.68 m/h 0 %
11:00:00 clear sky 16.400 16.400 16.400 29 2.31 m/h 0 %
14:00:00 clear sky 19.450 19.450 19.450 24 2.99 m/h 0 %
17:00:00 clear sky 15.500 15.500 15.500 32 2.36 m/h 0 %
20:00:00 clear sky 11.340 11.340 11.340 40 1.52 m/h 0 %
23:00:00 clear sky 9.910 9.910 9.910 45 1.44 m/h 0 %
20-Jan-2021 (Wed)
02:00:00 clear sky 9.050 9.050 9.050 47 1.68 m/h 0 %
05:00:00 clear sky 8.260 8.260 8.260 48 2.22 m/h 0 %
08:00:00 clear sky 8.440 8.440 8.440 48 2.27 m/h 0 %
11:00:00 clear sky 16.480 16.480 16.480 28 3.27 m/h 0 %
14:00:00 clear sky 19.810 19.810 19.810 23 4.14 m/h 0 %
17:00:00 scattered clouds 15.750 15.750 15.750 31 2.91 m/h 0 %
20:00:00 broken clouds 12.030 12.030 12.030 38 2.31 m/h 0 %
23:00:00 scattered clouds 10.290 10.290 10.290 42 2.21 m/h 0 %
21-Jan-2021 (Thu)
02:00:00 broken clouds 9.020 9.020 9.020 45 2.32 m/h 0 %
05:00:00 broken clouds 8.210 8.210 8.210 45 2.34 m/h 0 %
08:00:00 overcast clouds 8.440 8.440 8.440 45 2.15 m/h 0 %
11:00:00 overcast clouds 15.920 15.920 15.920 27 2.28 m/h 0 %
14:00:00 overcast clouds 18.700 18.700 18.700 23 2.63 m/h 0 %
17:00:00 overcast clouds 14.690 14.690 14.690 32 1.35 m/h 0 %
20:00:00 overcast clouds 10.910 10.910 10.910 39 1.34 m/h 0 %
23:00:00 broken clouds 10.350 10.350 10.350 42 1.98 m/h 0 %
22-Jan-2021 (Fri)
02:00:00 clear sky 10.150 10.150 10.150 42 2.16 m/h 0 %
05:00:00 scattered clouds 9.330 9.330 9.330 43 1.16 m/h 0 %
08:00:00 broken clouds 9.660 9.660 9.660 44 0.96 m/h 0 %
11:00:00 scattered clouds 17.680 17.680 17.680 26 0.96 m/h 0 %
14:00:00 few clouds 20.670 20.670 20.670 23 4.97 m/h 0 %
17:00:00 few clouds 16.600 16.600 16.600 32 3.98 m/h 0 %
20:00:00 clear sky 12.240 12.240 12.240 42 2.67 m/h 0 %
23:00:00 clear sky 10.880 10.880 10.880 46 2.18 m/h 0 %
23-Jan-2021 (Sat)
02:00:00 clear sky 9.720 9.720 9.720 49 1.47 m/h 0 %
05:00:00 few clouds 8.520 8.520 8.520 53 2.45 m/h 0 %

Famous Cities (60)